Time;durP1;ratioP1;P1;durP2;ratioP2;P2;SDS_P1;SDS_P2;PMS_P1;PMS_P2;Temp;Humidity;BMP_temperature;BMP_pressure;BME280_temperature;BME280_humidity;BME280_pressure;Samples;Min_cycle;Max_cycle;Signal;HPM_P1;HPM_P2
2024/04/14 00:00:07;;;;;;;4.80;4.30;;;;;;;17.52;100.00;100852.25;5460680;26;20408;-76
2024/04/14 00:02:33;;;;;;;6.55;3.80;;;;;;;17.48;100.00;100842.16;5460663;26;20334;-76
2024/04/14 00:04:58;;;;;;;4.73;3.80;;;;;;;17.44;100.00;100847.38;5494388;26;21861;-76
2024/04/14 00:07:23;;;;;;;5.63;3.77;;;;;;;17.40;100.00;100839.97;5493520;26;20350;-76
2024/04/14 00:09:48;;;;;;;6.65;3.95;;;;;;;17.38;100.00;100842.19;5492779;26;20306;-76
2024/04/14 00:12:14;;;;;;;4.57;3.83;;;;;;;17.34;100.00;100843.84;5492519;26;20314;-76
2024/04/14 00:14:39;;;;;;;5.40;3.67;;;;;;;17.33;100.00;100843.00;5493260;26;20314;-76
2024/04/14 00:17:04;;;;;;;4.93;3.80;;;;;;;17.30;100.00;100835.34;5495316;26;20308;-76
2024/04/14 00:19:31;;;;;;;4.00;3.50;;;;;;;17.32;100.00;100833.16;5492601;26;20326;-76
2024/04/14 00:21:56;;;;;;;6.63;3.80;;;;;;;17.30;100.00;100827.13;5492697;26;20337;-76
2024/04/14 00:24:21;;;;;;;5.57;3.80;;;;;;;17.28;100.00;100834.00;5489529;26;20327;-76
2024/04/14 00:26:48;;;;;;;8.23;4.20;;;;;;;17.27;100.00;100826.88;5494525;26;20344;-76
2024/04/14 00:29:14;;;;;;;7.50;3.83;;;;;;;17.28;100.00;100828.53;5491856;26;20403;-76
2024/04/14 00:31:39;;;;;;;6.20;3.77;;;;;;;17.31;100.00;100823.31;5491924;26;20832;-76
2024/04/14 00:34:04;;;;;;;6.27;4.17;;;;;;;17.33;100.00;100823.00;5487312;26;20322;-76
2024/04/14 00:36:29;;;;;;;6.77;3.90;;;;;;;17.36;100.00;100822.44;5495262;26;20687;-76
2024/04/14 00:38:55;;;;;;;10.40;4.90;;;;;;;17.33;100.00;100818.34;5492166;26;20363;-76
2024/04/14 00:41:20;;;;;;;7.23;4.73;;;;;;;17.33;100.00;100820.28;5487182;26;20322;-76
2024/04/14 00:43:45;;;;;;;7.57;4.67;;;;;;;17.29;100.00;100828.22;5491494;26;20830;-76
2024/04/14 00:46:11;;;;;;;5.53;4.40;;;;;;;17.27;100.00;100824.97;5488866;26;20326;-76
2024/04/14 00:48:36;;;;;;;5.93;4.83;;;;;;;17.24;100.00;100822.78;5488759;26;20314;-76
2024/04/14 00:51:04;;;;;;;6.13;4.43;;;;;;;17.21;100.00;100814.31;5456760;26;20318;-76
2024/04/14 00:53:31;;;;;;;7.20;4.72;;;;;;;17.19;100.00;100811.03;5488723;26;20310;-76
2024/04/14 00:55:57;;;;;;;6.90;4.38;;;;;;;17.18;100.00;100806.66;5456711;26;20338;-76
2024/04/14 00:58:23;;;;;;;9.88;4.95;;;;;;;17.16;100.00;100809.66;5456453;26;20319;-76
2024/04/14 01:00:48;;;;;;;6.93;4.93;;;;;;;17.14;100.00;100803.66;5488867;26;20880;-76
2024/04/14 01:03:13;;;;;;;6.23;4.87;;;;;;;17.12;100.00;100800.38;5488896;26;20349;-76
2024/04/14 01:05:39;;;;;;;6.70;4.53;;;;;;;17.10;100.00;100802.56;5487719;26;20832;-76
2024/04/14 01:08:05;;;;;;;6.87;4.67;;;;;;;17.08;100.00;100807.50;5488483;26;20805;-76
2024/04/14 01:10:30;;;;;;;8.77;4.85;;;;;;;17.04;100.00;100806.44;5488542;26;20322;-75
2024/04/14 01:12:56;;;;;;;6.60;4.63;;;;;;;17.01;100.00;100809.72;5488634;26;20343;-76
2024/04/14 01:15:21;;;;;;;6.00;4.40;;;;;;;16.97;100.00;100803.97;5488802;26;20907;-76
2024/04/14 01:17:46;;;;;;;5.83;4.60;;;;;;;16.95;100.00;100806.19;5488557;26;20330;-75
2024/04/14 01:20:13;;;;;;;6.03;4.27;;;;;;;16.92;100.00;100801.28;5488771;26;20330;-76
2024/04/14 01:22:38;;;;;;;6.30;4.38;;;;;;;16.90;100.00;100810.84;5491768;26;20403;-76
2024/04/14 01:25:06;;;;;;;4.87;4.07;;;;;;;16.87;100.00;100804.00;5491340;26;20730;-75
2024/04/14 01:27:31;;;;;;;6.18;4.35;;;;;;;16.85;100.00;100806.22;5493958;26;20314;-76
2024/04/14 01:29:56;;;;;;;5.60;4.40;;;;;;;16.84;100.00;100807.31;5491251;26;20861;-76
2024/04/14 01:32:22;;;;;;;5.50;4.30;;;;;;;16.83;100.00;100800.19;5486704;26;20325;-76
2024/04/14 01:34:47;;;;;;;6.63;4.53;;;;;;;16.83;100.00;100810.31;5488122;26;20452;-76
2024/04/14 01:37:12;;;;;;;4.10;3.80;;;;;;;16.82;100.00;100808.69;5456113;26;20351;-76
2024/04/14 01:39:38;;;;;;;4.50;3.85;;;;;;;16.79;100.00;100804.59;5487894;26;20359;-76
2024/04/14 01:42:03;;;;;;;5.83;3.80;;;;;;;16.77;100.00;100801.31;5459451;26;20354;-76
2024/04/14 01:44:29;;;;;;;5.60;4.15;;;;;;;16.75;100.00;100806.25;5491357;26;20353;-75
2024/04/14 01:46:54;;;;;;;4.83;4.33;;;;;;;16.72;100.00;100801.31;5491505;26;20353;-76
2024/04/14 01:49:20;;;;;;;4.85;4.03;;;;;;;16.72;100.00;100803.25;5487213;26;20322;-76
2024/04/14 01:51:45;;;;;;;4.80;4.30;;;;;;;16.69;100.00;100790.94;5484586;26;20658;-76
2024/04/14 01:54:12;;;;;;;4.77;3.80;;;;;;;16.67;100.00;100795.84;5487866;26;20315;-76
2024/04/14 01:56:37;;;;;;;5.70;3.80;;;;;;;16.65;100.00;100799.97;5487621;26;20401;-76
2024/04/14 01:59:03;;;;;;;5.77;4.00;;;;;;;16.63;100.00;100792.00;5487665;26;20318;-76
2024/04/14 02:01:28;;;;;;;4.07;3.50;;;;;;;16.65;100.00;100791.75;5464900;26;20347;-76
2024/04/14 02:03:54;;;;;;;8.07;4.00;;;;;;;16.65;100.00;100797.22;5491226;26;20674;-76
2024/04/14 02:06:19;;;;;;;6.10;3.60;;;;;;;16.61;100.00;100796.97;5459008;26;20314;-75
2024/04/14 02:08:44;;;;;;;8.70;3.67;;;;;;;16.60;100.00;100803.53;5491911;26;20331;-75
2024/04/14 02:11:09;;;;;;;4.53;4.05;;;;;;;16.57;100.00;100796.69;5461214;26;20311;-76
2024/04/14 02:13:35;;;;;;;8.03;3.73;;;;;;;16.58;100.00;100798.34;5491082;26;20310;-75
2024/04/14 02:16:00;;;;;;;4.30;3.43;;;;;;;16.57;100.00;100793.13;5485658;26;20322;-76
2024/04/14 02:18:26;;;;;;;6.38;3.72;;;;;;;16.56;100.00;100791.50;5454399;26;20808;-75
2024/04/14 02:20:51;;;;;;;5.67;3.90;;;;;;;16.58;100.00;100798.34;5487313;26;20651;-75
2024/04/14 02:23:17;;;;;;;4.30;3.57;;;;;;;16.56;100.00;100803.25;5487133;26;20846;-76
2024/04/14 02:25:53;;;;;;;4.25;3.60;;;;;;;16.57;100.00;100802.16;5487041;26;20371;-76
2024/04/14 02:28:18;;;;;;;3.65;3.40;;;;;;;16.61;100.00;100807.91;5455955;26;20353;-76
2024/04/14 02:30:43;;;;;;;8.80;3.35;;;;;;;16.64;100.00;100801.88;5487321;26;20315;-76
2024/04/14 02:33:09;;;;;;;8.83;3.30;;;;;;;16.64;100.00;100798.31;5486813;26;20322;-76
2024/04/14 02:35:34;;;;;;;4.30;3.47;;;;;;;16.62;100.00;100793.13;5487281;26;20824;-76
2024/04/14 02:37:59;;;;;;;5.90;2.97;;;;;;;16.62;100.00;100803.25;5487136;26;20702;-75
2024/04/14 02:40:24;;;;;;;3.47;3.10;;;;;;;16.62;100.00;100797.78;5453827;26;20326;-76
2024/04/14 02:42:50;;;;;;;4.70;3.37;;;;;;;16.60;100.00;100793.41;5486434;26;20362;-76
2024/04/14 02:45:15;;;;;;;3.47;2.83;;;;;;;16.64;100.00;100792.84;5453549;26;20322;-76
2024/04/14 02:47:41;;;;;;;4.30;3.00;;;;;;;16.66;100.00;100807.09;5487231;26;20310;-76
2024/04/14 02:50:06;;;;;;;3.23;2.93;;;;;;;16.67;100.00;100808.72;5486197;26;20411;-75
2024/04/14 02:52:32;;;;;;;5.73;3.27;;;;;;;16.67;100.00;100809.53;5454824;26;20682;-76
2024/04/14 02:54:57;;;;;;;2.87;2.60;;;;;;;16.67;100.00;100803.22;5458081;26;20416;-76
2024/04/14 02:57:23;;;;;;;4.77;2.50;;;;;;;16.64;100.00;100809.25;5489976;26;20342;-76
2024/04/14 02:59:48;;;;;;;3.03;2.42;;;;;;;16.67;100.00;100801.31;5490006;26;20789;-76
2024/04/14 03:02:13;;;;;;;3.10;2.70;;;;;;;16.67;100.00;100809.53;5493315;26;20308;-76
2024/04/14 03:04:39;;;;;;;3.07;2.50;;;;;;;16.68;100.00;100804.88;5490330;26;20314;-75
2024/04/14 03:07:04;;;;;;;4.93;2.45;;;;;;;16.67;100.00;100811.44;5436785;26;20899;-76
2024/04/14 03:09:29;;;;;;;6.67;2.90;;;;;;;16.70;100.00;100811.72;5500525;26;20310;-75
2024/04/14 03:11:55;;;;;;;6.47;2.73;;;;;;;16.74;100.00;100820.19;5475363;26;20315;-75
2024/04/14 03:14:20;;;;;;;3.53;3.03;;;;;;;16.75;100.00;100827.31;5510040;26;20327;-75
2024/04/14 03:16:47;;;;;;;2.80;2.60;;;;;;;16.75;100.00;100828.13;5475612;26;20379;-76
2024/04/14 03:19:12;;;;;;;3.30;2.67;;;;;;;16.77;100.00;100827.84;5502615;26;20343;-76
2024/04/14 03:21:37;;;;;;;3.53;2.27;;;;;;;16.78;100.00;100827.59;5505902;26;20318;-75
2024/04/14 03:24:03;;;;;;;2.90;2.40;;;;;;;16.76;100.00;100823.50;5509690;26;20753;-76
2024/04/14 03:26:28;;;;;;;2.50;2.13;;;;;;;16.75;100.00;100824.56;5509486;26;20347;-76
2024/04/14 03:28:54;;;;;;;3.43;2.57;;;;;;;16.75;100.00;100832.78;5502904;26;20687;-76
2024/04/14 03:31:20;;;;;;;5.20;3.13;;;;;;;16.67;100.00;100822.38;5503665;26;20406;-76
2024/04/14 03:33:45;;;;;;;4.33;2.57;;;;;;;16.69;100.00;100820.22;5477434;26;20324;-76
2024/04/14 03:36:10;;;;;;;5.17;2.87;;;;;;;16.69;100.00;100821.03;5507173;26;20311;-76
2024/04/14 03:38:36;;;;;;;5.53;2.60;;;;;;;16.69;100.00;100818.31;5502322;26;20314;-75
2024/04/14 03:41:02;;;;;;;4.20;2.47;;;;;;;16.71;100.00;100831.69;5502760;26;20352;-76
2024/04/14 03:43:28;;;;;;;6.10;3.00;;;;;;;16.75;100.00;100830.06;5508453;26;20347;-76
2024/04/14 03:45:53;;;;;;;2.83;2.58;;;;;;;16.70;100.00;100828.13;5509484;26;20806;-76
2024/04/14 03:48:19;;;;;;;7.90;3.30;;;;;;;16.66;100.00;100827.06;5506390;26;20304;-76
2024/04/14 03:50:47;;;;;;;5.30;2.85;;;;;;;16.66;100.00;100827.06;5470270;26;20382;-76
2024/04/14 03:53:12;;;;;;;3.00;2.70;;;;;;;16.60;100.00;100828.97;5474536;26;20319;-76
2024/04/14 03:55:38;;;;;;;6.20;3.22;;;;;;;16.52;100.00;100824.03;5477003;26;20324;-76
2024/04/14 03:58:03;;;;;;;5.43;3.67;;;;;;;16.49;100.00;100829.25;5507299;26;20324;-76
2024/04/14 04:00:28;;;;;;;5.40;3.30;;;;;;;16.49;100.00;100834.72;5502249;26;20352;-76
2024/04/14 04:02:54;;;;;;;4.82;3.00;;;;;;;16.49;100.00;100835.53;5505292;26;20315;-76
2024/04/14 04:05:19;;;;;;;6.27;3.10;;;;;;;16.45;100.00;100828.97;5513096;26;20360;-76
2024/04/14 04:07:48;;;;;;;4.40;3.27;;;;;;;16.41;100.00;100835.25;5494077;26;20358;-76
2024/04/14 04:10:13;;;;;;;3.90;2.95;;;;;;;16.37;100.00;100834.16;5488215;26;20318;-76
2024/04/14 04:12:39;;;;;;;5.68;3.08;;;;;;;16.33;100.00;100838.53;5489226;26;20333;-76
2024/04/14 04:15:04;;;;;;;4.17;3.00;;;;;;;16.32;100.00;100837.72;5489031;26;20318;-76
2024/04/14 04:17:30;;;;;;;6.63;3.00;;;;;;;16.30;100.00;100839.09;5488884;26;20354;-76
2024/04/14 04:19:55;;;;;;;3.40;2.80;;;;;;;16.27;100.00;100837.69;5488910;26;20742;-76
2024/04/14 04:22:20;;;;;;;5.80;3.33;;;;;;;16.34;100.00;100843.72;5489342;26;20351;-76
2024/04/14 04:24:45;;;;;;;5.80;2.90;;;;;;;16.33;100.00;100849.50;5489305;26;20844;-76
2024/04/14 04:27:11;;;;;;;4.17;3.20;;;;;;;16.33;100.00;100852.22;5457337;26;21026;-76
2024/04/14 04:29:36;;;;;;;3.30;2.70;;;;;;;16.33;100.00;100853.06;5489094;26;20330;-76
2024/04/14 04:32:01;;;;;;;4.00;3.00;;;;;;;16.30;100.00;100847.31;5489300;26;20314;-76
2024/04/14 04:34:26;;;;;;;4.63;2.43;;;;;;;16.24;100.00;100851.94;5489185;26;20314;-76
2024/04/14 04:36:52;;;;;;;7.33;2.77;;;;;;;16.23;100.00;100846.75;5487928;26;20326;-76
2024/04/14 04:39:17;;;;;;;2.60;2.40;;;;;;;16.21;100.00;100846.19;5487783;26;20314;-75
2024/04/14 04:41:43;;;;;;;7.63;3.30;;;;;;;16.17;100.00;100853.31;5505655;26;20311;-76
2024/04/14 04:44:10;;;;;;;3.83;2.70;;;;;;;16.10;100.00;100851.63;5506728;26;20372;-76
2024/04/14 04:46:35;;;;;;;2.80;2.60;;;;;;;16.12;100.00;100851.38;5512440;26;20369;-76
2024/04/14 04:49:00;;;;;;;4.07;2.87;;;;;;;16.14;100.00;100842.88;5479816;26;20315;-76
2024/04/14 04:51:27;;;;;;;3.83;3.17;;;;;;;16.18;100.00;100846.72;5505782;26;20330;-76
2024/04/14 04:53:52;;;;;;;5.33;2.50;;;;;;;16.20;100.00;100850.03;5473023;26;20666;-76
2024/04/14 04:56:17;;;;;;;2.83;2.63;;;;;;;16.17;100.00;100854.09;5512183;26;20352;-76
2024/04/14 04:58:43;;;;;;;5.33;2.40;;;;;;;16.20;100.00;100850.81;5512289;26;20476;-76
2024/04/14 05:01:09;;;;;;;2.93;2.13;;;;;;;16.24;100.00;100857.41;5507986;26;20352;-76
2024/04/14 05:03:35;;;;;;;3.35;2.38;;;;;;;16.24;100.00;100857.41;5473201;26;20362;-76
2024/04/14 05:06:02;;;;;;;6.47;2.63;;;;;;;16.26;100.00;100857.97;5506354;26;20315;-76
2024/04/14 05:08:27;;;;;;;4.60;2.63;;;;;;;16.27;100.00;100861.53;5457369;26;20322;-76
2024/04/14 05:10:56;;;;;;;4.30;2.72;;;;;;;16.28;100.00;100863.16;5487525;26;20351;-76
2024/04/14 05:13:22;;;;;;;3.00;2.80;;;;;;;16.29;100.00;100868.34;5488225;26;20315;-76
2024/04/14 05:15:48;;;;;;;3.67;2.72;;;;;;;16.30;100.00;100867.25;5488299;26;20326;-75
2024/04/14 05:18:13;;;;;;;5.90;3.00;;;;;;;16.31;100.00;100870.81;5488348;26;20417;-76
2024/04/14 05:20:39;;;;;;;4.50;2.63;;;;;;;16.33;100.00;100874.09;5471477;26;20367;-75
2024/04/14 05:23:05;;;;;;;3.20;2.90;;;;;;;16.36;100.00;100873.56;5504883;26;20306;-76
2024/04/14 05:25:31;;;;;;;3.40;2.40;;;;;;;16.36;100.00;100871.66;5505650;26;20326;-76
2024/04/14 05:27:56;;;;;;;3.17;2.27;;;;;;;16.32;100.00;100867.81;5511904;26;20403;-76
2024/04/14 05:30:21;;;;;;;2.50;2.13;;;;;;;16.27;100.00;100873.25;5511491;26;20320;-76
2024/04/14 05:32:46;;;;;;;4.67;2.90;;;;;;;16.27;100.00;100877.94;5500891;26;20318;-75
2024/04/14 05:35:13;;;;;;;2.87;2.63;;;;;;;16.26;100.00;100879.00;5483582;26;20499;-75
2024/04/14 05:37:38;;;;;;;4.00;2.30;;;;;;;16.23;100.00;100883.13;5487087;26;20342;-75
2024/04/14 05:40:04;;;;;;;3.53;2.57;;;;;;;16.24;100.00;100883.91;5502570;26;20308;-75
2024/04/14 05:42:30;;;;;;;3.40;2.60;;;;;;;16.31;100.00;100888.03;5506453;26;20307;-75
2024/04/14 05:44:55;;;;;;;2.60;2.40;;;;;;;16.36;100.00;100885.31;5504547;26;20359;-75
2024/04/14 05:47:20;;;;;;;5.73;2.73;;;;;;;16.39;100.00;100878.47;5510319;26;20320;-75
2024/04/14 05:49:46;;;;;;;9.13;3.03;;;;;;;16.43;100.00;100888.56;5511345;26;20353;-75
2024/04/14 05:52:11;;;;;;;6.00;2.90;;;;;;;16.44;100.00;100886.66;5486691;26;20378;-75
2024/04/14 05:54:36;;;;;;;2.87;2.60;;;;;;;16.46;100.00;100885.31;5488248;26;20366;-75
2024/04/14 05:57:01;;;;;;;6.33;2.67;;;;;;;16.52;100.00;100888.88;5487807;26;20318;-75
2024/04/14 05:59:27;;;;;;;2.33;2.13;;;;;;;16.53;100.00;100893.25;5487654;26;20366;-75
2024/04/14 06:01:52;;;;;;;3.90;2.63;;;;;;;16.56;100.00;100895.47;5460111;26;20318;-76
2024/04/14 06:04:17;;;;;;;2.97;2.77;;;;;;;16.61;100.00;100895.47;5487846;26;20322;-75
2024/04/14 06:06:42;;;;;;;4.17;2.73;;;;;;;16.65;100.00;100898.47;5487863;26;20314;-75
2024/04/14 06:09:07;;;;;;;3.47;2.50;;;;;;;16.65;100.00;100899.31;5511110;26;20344;-76
2024/04/14 06:11:33;;;;;;;2.78;2.50;;;;;;;16.68;100.00;100897.94;5510800;26;20354;-76
2024/04/14 06:13:58;;;;;;;4.13;2.53;;;;;;;16.70;100.00;100899.28;5473238;26;20386;-76
2024/04/14 06:16:24;;;;;;;2.80;2.42;;;;;;;16.73;100.00;100900.69;5501868;26;20330;-75
2024/04/14 06:18:49;;;;;;;2.80;2.60;;;;;;;16.69;100.00;100902.31;5507255;26;20421;-76
2024/04/14 06:21:14;;;;;;;4.80;2.50;;;;;;;16.65;100.00;100902.03;5478403;26;20320;-76
2024/04/14 06:23:40;;;;;;;4.27;2.50;;;;;;;16.69;100.00;100897.66;5507630;26;20658;-76
2024/04/14 06:26:06;;;;;;;4.30;2.90;;;;;;;16.75;100.00;100902.03;5502625;26;20318;-76
2024/04/14 06:28:33;;;;;;;5.43;2.90;;;;;;;16.79;100.00;100905.88;5499930;26;20322;-75
2024/04/14 06:30:59;;;;;;;3.10;2.78;;;;;;;16.85;100.00;100904.75;5498492;26;20312;-76
2024/04/14 06:33:24;;;;;;;6.13;3.43;;;;;;;16.90;100.00;100899.28;5487894;26;20708;-76
2024/04/14 06:35:51;;;;;;;4.87;2.60;;;;;;;16.93;100.00;100903.38;5460844;26;20416;-75
2024/04/14 06:38:16;;;;;;;3.35;2.75;;;;;;;16.95;100.00;100903.94;5504979;26;20330;-75
2024/04/14 06:40:42;;;;;;;3.20;2.90;;;;;;;16.96;100.00;100908.28;5478110;26;20319;-76
2024/04/14 06:43:07;;;;;;;5.67;2.40;;;;;;;16.98;100.00;100909.69;5478078;26;20412;-75
2024/04/14 06:45:32;;;;;;;11.43;3.40;;;;;;;17.00;100.00;100906.66;5457611;26;20354;-76
2024/04/14 06:47:58;;;;;;;4.80;2.70;;;;;;;17.01;100.00;100906.38;5502772;26;20646;-76
2024/04/14 06:50:23;;;;;;;6.47;2.57;;;;;;;17.02;100.00;100913.50;5500974;26;20310;-75
2024/04/14 06:52:48;;;;;;;4.27;2.40;;;;;;;17.09;100.00;100905.81;5453638;26;20330;-75
2024/04/14 06:55:15;;;;;;;6.07;3.33;;;;;;;17.11;100.00;100913.75;5486478;26;20428;-75
2024/04/14 06:57:41;;;;;;;4.38;2.60;;;;;;;17.10;100.00;100903.88;5502712;26;20486;-74
2024/04/14 07:00:07;;;;;;;3.13;2.92;;;;;;;17.14;100.00;100902.25;5501988;26;20429;-75
2024/04/14 07:02:32;;;;;;;7.68;3.13;;;;;;;17.22;100.00;100909.09;5499167;26;20394;-74
2024/04/14 07:04:58;;;;;;;4.20;2.55;;;;;;;17.29;100.00;100898.66;5498681;26;20367;-75
2024/04/14 07:07:23;;;;;;;5.13;2.70;;;;;;;17.35;100.00;100903.03;5486018;26;20654;-75
2024/04/14 07:09:48;;;;;;;5.23;2.87;;;;;;;17.38;100.00;100903.28;5504943;26;20322;-76
2024/04/14 07:12:13;;;;;;;3.60;2.93;;;;;;;17.43;100.00;100905.16;5489713;26;20343;-76
2024/04/14 07:14:39;;;;;;;2.70;2.45;;;;;;;17.46;100.00;100899.94;5454330;26;20546;-76
2024/04/14 07:17:04;;;;;;;6.63;2.73;;;;;;;17.51;100.00;100899.94;5486778;26;20426;-75
2024/04/14 07:19:29;;;;;;;5.77;2.87;;;;;;;17.55;100.00;100903.78;5486418;26;20358;-77
2024/04/14 07:21:54;;;;;;;5.87;2.87;;;;;;;17.61;100.00;100899.13;5482759;26;20423;-76
2024/04/14 07:24:21;;;;;;;7.10;2.90;;;;;;;17.68;100.00;100888.66;5486310;26;20415;-77
2024/04/14 07:26:46;;;;;;;3.35;2.92;;;;;;;17.75;100.00;100899.34;5485303;26;20322;-76
2024/04/14 07:29:14;;;;;;;4.63;2.90;;;;;;;17.80;100.00;100899.28;5479567;26;20410;-76
2024/04/14 07:31:39;;;;;;;6.97;2.53;;;;;;;17.84;100.00;100900.38;5483336;26;20308;-76
2024/04/14 07:34:04;;;;;;;5.87;2.50;;;;;;;17.87;100.00;100899.81;5485483;26;20345;-76
2024/04/14 07:36:29;;;;;;;3.57;2.60;;;;;;;17.91;100.00;100895.41;5481953;26;20414;-76
2024/04/14 07:38:55;;;;;;;4.38;3.08;;;;;;;17.96;100.00;100904.41;5501859;26;20366;-76
2024/04/14 07:41:21;;;;;;;2.70;2.50;;;;;;;18.01;100.00;100896.13;5507844;26;20364;-76
2024/04/14 07:43:47;;;;;;;2.60;2.40;;;;;;;18.10;100.00;100904.63;5511987;26;20347;-77
2024/04/14 07:46:12;;;;;;;3.10;2.85;;;;;;;18.19;100.00;100897.41;5501412;26;20330;-74
2024/04/14 07:48:37;;;;;;;4.03;2.60;;;;;;;18.26;100.00;100899.84;5471970;26;20406;-76
2024/04/14 07:51:03;;;;;;;2.40;2.20;;;;;;;18.30;100.00;100903.66;5488632;26;20326;-76
2024/04/14 07:53:29;;;;;;;6.47;2.47;;;;;;;18.39;100.00;100910.16;5487927;26;20303;-76
2024/04/14 07:55:54;;;;;;;2.45;2.25;;;;;;;18.46;100.00;100907.94;5467272;26;20432;-76
2024/04/14 07:58:20;;;;;;;3.23;2.40;;;;;;;18.50;100.00;100901.63;5480165;26;20351;-75
2024/04/14 08:00:45;;;;;;;4.95;2.60;;;;;;;18.56;100.00;100911.44;5470003;26;20657;-75
2024/04/14 08:03:11;;;;;;;5.20;2.80;;;;;;;18.63;100.00;100908.38;5491946;26;20364;-76
2024/04/14 08:05:36;;;;;;;2.77;2.50;;;;;;;18.67;100.00;100916.84;5496394;26;20326;-76
2024/04/14 08:08:01;;;;;;;3.50;2.13;;;;;;;18.70;100.00;100908.88;5450368;26;20351;-76
2024/04/14 08:10:26;;;;;;;3.83;2.53;;;;;;;18.75;100.00;100911.56;5504989;26;20314;-76
2024/04/14 08:12:52;;;;;;;6.90;3.30;;;;;;;18.82;100.00;100911.22;5509605;26;20353;-76
2024/04/14 08:15:17;;;;;;;4.50;2.20;;;;;;;18.90;100.00;100916.09;5509888;26;20432;-76
2024/04/14 08:17:42;;;;;;;2.67;2.30;;;;;;;19.01;100.00;100914.88;5493204;26;20821;-77
2024/04/14 08:20:08;;;;;;;5.43;2.13;;;;;;;19.11;100.00;100912.84;5494261;26;20403;-77
2024/04/14 08:22:33;;;;;;;5.00;2.60;;;;;;;19.14;100.00;100914.19;5488049;26;20306;-76
2024/04/14 08:24:58;;;;;;;3.80;2.60;;;;;;;19.20;100.00;100914.97;5492231;26;20308;-75
2024/04/14 08:27:24;;;;;;;5.33;2.57;;;;;;;19.26;100.00;100911.88;5510579;26;20666;-77
2024/04/14 08:29:49;;;;;;;7.87;3.30;;;;;;;19.33;100.00;100926.06;5482925;26;20325;-77
2024/04/14 08:32:14;;;;;;;4.38;2.45;;;;;;;19.39;100.00;100915.88;5488848;26;20334;-77
2024/04/14 08:34:39;;;;;;;4.23;2.10;;;;;;;19.50;100.00;100917.41;5497541;26;20455;-78
2024/04/14 08:37:05;;;;;;;2.30;2.17;;;;;;;19.65;100.00;100909.00;5508134;26;20310;-76
2024/04/14 08:39:30;;;;;;;3.50;2.20;;;;;;;19.82;100.00;100914.81;5488985;26;20311;-75
2024/04/14 08:41:56;;;;;;;2.33;2.17;;;;;;;19.96;100.00;100909.38;5489161;26;20833;-79
2024/04/14 08:44:22;;;;;;;3.53;2.70;;;;;;;20.06;100.00;100899.06;5472863;26;21046;-81
2024/04/14 08:46:47;;;;;;;2.07;1.97;;;;;;;20.17;100.00;100903.31;5477032;26;20333;-80
2024/04/14 08:49:13;;;;;;;2.97;2.40;;;;;;;20.30;100.00;100900.94;5483688;26;20322;-76
2024/04/14 08:51:38;;;;;;;3.88;2.25;;;;;;;20.37;100.00;100898.63;5504566;26;20341;-76
2024/04/14 08:54:04;;;;;;;6.50;2.50;;;;;;;20.42;100.00;100895.78;5501067;26;20361;-76
2024/04/14 08:56:31;;;;;;;4.15;2.38;;;;;;;20.50;100.00;100895.94;5458869;26;20319;-76
2024/04/14 08:59:15;;;;;;;3.22;2.20;;;;;;;20.60;100.00;100894.97;5485769;26;20355;-76
2024/04/14 09:01:40;;;;;;;2.47;2.28;;;;;;;20.66;100.00;100896.50;5485767;26;20311;-75
2024/04/14 09:04:06;;;;;;;3.87;2.90;;;;;;;20.77;100.00;100891.66;5483142;26;20367;-76
2024/04/14 09:06:34;;;;;;;2.75;2.13;;;;;;;20.87;100.00;100894.22;5484595;26;20351;-76
2024/04/14 09:09:01;;;;;;;2.50;2.13;;;;;;;21.06;100.00;100895.78;5490337;26;20401;-76
2024/04/14 09:11:26;;;;;;;2.00;1.90;;;;;;;21.26;100.00;100899.31;5488106;26;20723;-76
2024/04/14 09:13:51;;;;;;;3.60;2.70;;;;;;;21.35;100.00;100891.97;5475598;26;20314;-76
2024/04/14 09:16:17;;;;;;;2.33;2.13;;;;;;;21.29;100.00;100896.75;5425954;26;20343;-76
2024/04/14 09:18:43;;;;;;;2.40;2.20;;;;;;;21.30;100.00;100901.16;5451827;26;20317;-76
2024/04/14 09:21:08;;;;;;;2.20;2.00;;;;;;;21.36;100.00;100899.94;5477667;26;20307;-76
2024/04/14 09:23:33;;;;;;;4.83;2.30;;;;;;;21.61;100.00;100899.41;5434386;26;20431;-76
2024/04/14 09:26:01;;;;;;;2.57;2.20;;;;;;;21.64;100.00;100895.22;5385749;26;20447;-76
2024/04/14 09:28:26;;;;;;;2.95;2.45;;;;;;;21.72;100.00;100891.75;5443458;26;20325;-77
2024/04/14 09:30:52;;;;;;;3.50;2.40;;;;;;;21.71;100.00;100884.59;5448063;26;20428;-76
2024/04/14 09:33:17;;;;;;;4.70;2.37;;;;;;;21.83;100.00;100887.66;5446549;26;20314;-77
2024/04/14 09:35:42;;;;;;;2.50;2.30;;;;;;;22.04;100.00;100888.84;5444849;26;20333;-76
2024/04/14 09:38:14;;;;;;;4.53;2.20;;;;;;;22.16;100.00;100883.59;5410905;26;20358;-76
2024/04/14 09:40:40;;;;;;;2.70;2.30;;;;;;;22.39;100.00;100889.97;5449385;26;20333;-76
2024/04/14 09:43:05;;;;;;;5.47;2.87;;;;;;;22.72;100.00;100885.03;5447445;26;20362;-76
2024/04/14 09:45:31;;;;;;;4.67;3.30;;;;;;;22.71;100.00;100883.41;5446365;26;20350;-76
2024/04/14 09:47:56;;;;;;;2.50;2.28;;;;;;;22.76;100.00;100883.25;5444190;26;20339;-76
2024/04/14 09:50:23;;;;;;;2.17;2.07;;;;;;;22.89;100.00;100878.78;5450084;26;20330;-76
2024/04/14 09:52:49;;;;;;;4.90;2.35;;;;;;;22.87;100.00;100884.63;5445407;26;20335;-76
2024/04/14 09:55:15;;;;;;;3.40;1.90;;;;;;;22.94;100.00;100884.19;5443330;26;20325;-76
2024/04/14 09:57:40;;;;;;;3.37;2.37;;;;;;;23.08;100.00;100880.19;5444696;26;20353;-76
2024/04/14 10:00:08;;;;;;;3.85;2.20;;;;;;;23.38;100.00;100878.50;5447345;26;20387;-74
2024/04/14 10:02:44;;;;;;;2.33;2.20;;;;;;;23.61;100.00;100871.78;5488704;26;20323;-74
2024/04/14 10:05:11;;;;;;;2.60;2.00;;;;;;;23.68;100.00;100863.81;5449068;26;20332;-75
2024/04/14 10:07:37;;;;;;;3.13;2.05;;;;;;;24.02;100.00;100865.00;5478819;26;20696;-75
2024/04/14 10:10:05;;;;;;;2.17;1.97;;;;;;;24.47;100.00;100865.53;5485812;26;20334;-75
2024/04/14 10:12:33;;;;;;;3.20;2.03;;;;;;;24.91;100.00;100867.09;5472745;26;20315;-74
2024/04/14 10:15:02;;;;;;;2.67;1.88;;;;;;;25.23;100.00;100861.75;5475592;26;20335;-75
2024/04/14 10:17:28;;;;;;;4.35;2.25;;;;;;;25.51;100.00;100861.31;5500021;26;20308;-75
2024/04/14 10:19:57;;;;;;;6.18;2.50;;;;;;;25.82;100.00;100856.22;5480679;26;20416;-75
2024/04/14 10:22:50;;;;;;;3.17;1.63;;;;;;;25.88;100.00;100854.88;5487018;26;20425;-75
2024/04/14 10:25:22;;;;;;;5.18;1.90;;;;;;;25.84;98.08;100850.34;5476695;26;20414;-75
2024/04/14 10:27:48;;;;;;;5.28;2.10;;;;;;;25.82;98.24;100850.66;5484642;26;20318;-75
2024/04/14 10:30:21;;;;;;;2.58;1.75;;;;;;;26.01;97.75;100848.25;5483973;26;20322;-75
2024/04/14 10:32:47;;;;;;;2.97;1.88;;;;;;;26.39;94.77;100839.78;5486811;26;20322;-75
2024/04/14 10:35:15;;;;;;;2.97;1.40;;;;;;;27.07;91.32;100841.00;5497606;26;20320;-75
2024/04/14 10:37:40;;;;;;;2.70;1.40;;;;;;;27.84;84.78;100841.94;5487626;26;20334;-75
2024/04/14 10:40:07;;;;;;;2.33;1.50;;;;;;;28.41;77.96;100838.88;5475713;26;20347;-75
2024/04/14 10:42:36;;;;;;;3.83;1.95;;;;;;;28.93;74.14;100833.13;5476735;26;20908;-75
2024/04/14 10:45:01;;;;;;;4.53;1.77;;;;;;;29.78;72.32;100838.81;5506399;26;20308;-75
2024/04/14 10:47:29;;;;;;;6.00;2.13;;;;;;;30.23;67.86;100829.06;5502699;26;20421;-75
2024/04/14 10:49:54;;;;;;;4.43;1.88;;;;;;;30.30;67.88;100829.16;5448021;26;20427;-75
2024/04/14 10:52:20;;;;;;;2.60;1.73;;;;;;;30.21;65.12;100823.00;5469147;26;20856;-75
2024/04/14 10:54:45;;;;;;;3.10;1.57;;;;;;;30.37;66.18;100830.13;5474369;26;20321;-75
2024/04/14 10:57:11;;;;;;;3.67;1.30;;;;;;;30.40;63.33;100820.22;5480837;26;20313;-74
2024/04/14 10:59:37;;;;;;;1.60;1.38;;;;;;;29.50;66.64;100829.00;5487840;26;20369;-75
2024/04/14 11:02:04;;;;;;;4.20;1.87;;;;;;;28.77;68.45;100819.19;5472569;26;20323;-75
2024/04/14 11:04:31;;;;;;;1.70;1.35;;;;;;;28.80;71.33;100812.06;5455244;26;20322;-75
2024/04/14 11:06:57;;;;;;;4.18;1.63;;;;;;;29.23;68.17;100809.19;5482136;26;20433;-74
2024/04/14 11:09:23;;;;;;;4.60;1.73;;;;;;;28.80;68.44;100798.13;5486986;26;20629;-76